Aérodrome :
LOGIN :

S'inscrire | Disclaimer

   EN    FR    IT 

 










Légende :    VFR   VFR Marginal   IFR   IFR Intensif   IFR Très Intensif
Visi : 
Plafond : 
>= 8 km
>= 3000ft
5 à 8 km
1000 à 3000 ft
1500m à 5 km
500 à 1000 ft
800 à 1500m
200 à 500 ft
< 800m
< 200 ft
Symboles :   Orages  Brouillard  Fortes neiges  Fortes précipitations  Vent > 20 kt
SIGMETs :   Divers  Orages  Givrage  Turbulence  Onde Orograph.  Cendres Volcan.






- Altitude de l'aérodrome : 245 ft
- Code IATA : BIQ


LFBZ - Biarritz

DERNIER METAR :
  • 100430Z AUTO 16004KT CAVOK 08/07 Q1030 TEMPO 4000 BR

METARs EXPIRÉS :
  • 100400Z AUTO 17004KT 9999 FEW027 SCT050 BKN120 08/07 Q1030 TEMPO 4000 BR
  • 100330Z AUTO 16004KT 9999 FEW031 SCT048 09/07 Q1031 TEMPO 4000 BR
  • 100300Z AUTO 15002KT 9999 BKN052 BKN100 BKN120 11/07 Q1031 NOSIG
  • 100230Z AUTO 33003KT 290V360 9999 OVC054 12/08 Q1031 NOSIG
  • 100200Z AUTO VRB02KT 9999 OVC052 11/07 Q1031 NOSIG

TAF TAF LFBZ
Valide du 10 à 00h jusqu'au 11 à 00h UTC


092300Z 1000/1024 30010KT 9999 BKN030
BECMG 1003/1005 VRB02KT
PROB40 1005/1007 4000 BR NSC
FM100900 12005KT CAVOK
BECMG 1020/1022 BKN070



MET'MAP, la Météo Aéronautique d'un coup d'oeil ! - Copyright ORBIFLY Décembre 2007 - Disclaimer

ORBIFLY MET'MAP TEAM :

Programmation & Développement : Alexandra Zaïnal
Sur une idée originale de : Baudouin d'Aumeries
Assistance à la programmation : Marc-Olivier Méhu
Soutien technique & logistique : Manuel Goepfert

Contact : metmap@orbifly.com




SOURCES & CREDITS :

   NOAA